sensor_id;sensor_type;location;lat;lon;timestamp;P1;durP1;ratioP1;P2;durP2;ratioP2
14554;SDS011;7364;50.870;4.722;2023-12-14T00:00:32;30.07;;;21.00;;
14554;SDS011;7364;50.870;4.722;2023-12-14T00:03:00;32.87;;;21.50;;
14554;SDS011;7364;50.870;4.722;2023-12-14T00:05:27;35.80;;;23.53;;
14554;SDS011;7364;50.870;4.722;2023-12-14T00:07:54;37.63;;;22.40;;
14554;SDS011;7364;50.870;4.722;2023-12-14T00:10:22;31.80;;;23.50;;
14554;SDS011;7364;50.870;4.722;2023-12-14T00:12:49;31.50;;;22.80;;
14554;SDS011;7364;50.870;4.722;2023-12-14T00:15:18;29.20;;;21.63;;
14554;SDS011;7364;50.870;4.722;2023-12-14T00:17:45;35.87;;;23.57;;
14554;SDS011;7364;50.870;4.722;2023-12-14T00:20:14;37.23;;;24.13;;
14554;SDS011;7364;50.870;4.722;2023-12-14T00:22:42;39.63;;;23.40;;
14554;SDS011;7364;50.870;4.722;2023-12-14T00:25:09;35.60;;;23.53;;
14554;SDS011;7364;50.870;4.722;2023-12-14T00:27:36;40.27;;;24.43;;
14554;SDS011;7364;50.870;4.722;2023-12-14T00:30:04;41.07;;;24.97;;
14554;SDS011;7364;50.870;4.722;2023-12-14T00:32:32;45.53;;;24.87;;
14554;SDS011;7364;50.870;4.722;2023-12-14T00:34:59;41.20;;;24.43;;
14554;SDS011;7364;50.870;4.722;2023-12-14T00:37:28;39.80;;;26.57;;
14554;SDS011;7364;50.870;4.722;2023-12-14T00:39:55;42.60;;;23.80;;
14554;SDS011;7364;50.870;4.722;2023-12-14T00:42:22;37.53;;;24.83;;
14554;SDS011;7364;50.870;4.722;2023-12-14T00:44:50;35.60;;;24.97;;
14554;SDS011;7364;50.870;4.722;2023-12-14T00:47:17;41.73;;;24.00;;
14554;SDS011;7364;50.870;4.722;2023-12-14T00:49:44;44.40;;;26.90;;
14554;SDS011;7364;50.870;4.722;2023-12-14T00:52:12;34.20;;;23.43;;
14554;SDS011;7364;50.870;4.722;2023-12-14T00:54:40;44.47;;;24.60;;
14554;SDS011;7364;50.870;4.722;2023-12-14T00:57:08;32.30;;;23.20;;
14554;SDS011;7364;50.870;4.722;2023-12-14T00:59:35;35.63;;;23.80;;
14554;SDS011;7364;50.870;4.722;2023-12-14T01:02:02;36.47;;;25.40;;
14554;SDS011;7364;50.870;4.722;2023-12-14T01:04:29;41.10;;;23.83;;
14554;SDS011;7364;50.870;4.722;2023-12-14T01:06:58;36.47;;;23.87;;
14554;SDS011;7364;50.870;4.722;2023-12-14T01:09:25;36.80;;;24.33;;
14554;SDS011;7364;50.870;4.722;2023-12-14T01:11:53;35.20;;;24.53;;
14554;SDS011;7364;50.870;4.722;2023-12-14T01:14:21;38.33;;;24.90;;
14554;SDS011;7364;50.870;4.722;2023-12-14T01:16:48;37.40;;;23.97;;
14554;SDS011;7364;50.870;4.722;2023-12-14T01:19:16;41.30;;;25.70;;
14554;SDS011;7364;50.870;4.722;2023-12-14T01:21:43;47.03;;;25.60;;
14554;SDS011;7364;50.870;4.722;2023-12-14T01:24:10;45.93;;;26.20;;
14554;SDS011;7364;50.870;4.722;2023-12-14T01:26:38;41.77;;;27.73;;
14554;SDS011;7364;50.870;4.722;2023-12-14T01:29:06;47.73;;;25.80;;
14554;SDS011;7364;50.870;4.722;2023-12-14T01:31:33;40.93;;;24.60;;
14554;SDS011;7364;50.870;4.722;2023-12-14T01:34:02;41.07;;;24.97;;
14554;SDS011;7364;50.870;4.722;2023-12-14T01:36:29;39.37;;;22.97;;
14554;SDS011;7364;50.870;4.722;2023-12-14T01:38:56;39.80;;;24.37;;
14554;SDS011;7364;50.870;4.722;2023-12-14T01:41:23;37.77;;;24.33;;
14554;SDS011;7364;50.870;4.722;2023-12-14T01:43:50;40.07;;;24.37;;
14554;SDS011;7364;50.870;4.722;2023-12-14T01:46:19;42.67;;;24.73;;
14554;SDS011;7364;50.870;4.722;2023-12-14T01:48:46;34.97;;;22.93;;
14554;SDS011;7364;50.870;4.722;2023-12-14T01:51:14;39.17;;;25.70;;
14554;SDS011;7364;50.870;4.722;2023-12-14T01:53:42;42.43;;;25.30;;
14554;SDS011;7364;50.870;4.722;2023-12-14T01:56:09;36.73;;;22.30;;
14554;SDS011;7364;50.870;4.722;2023-12-14T01:58:37;37.77;;;22.53;;
14554;SDS011;7364;50.870;4.722;2023-12-14T02:01:05;37.90;;;22.67;;
14554;SDS011;7364;50.870;4.722;2023-12-14T02:03:45;39.57;;;21.03;;
14554;SDS011;7364;50.870;4.722;2023-12-14T02:06:15;34.07;;;20.60;;
14554;SDS011;7364;50.870;4.722;2023-12-14T02:08:42;32.63;;;18.30;;
14554;SDS011;7364;50.870;4.722;2023-12-14T02:11:10;34.63;;;17.60;;
14554;SDS011;7364;50.870;4.722;2023-12-14T02:13:37;25.90;;;16.80;;
14554;SDS011;7364;50.870;4.722;2023-12-14T02:16:05;28.80;;;16.67;;
14554;SDS011;7364;50.870;4.722;2023-12-14T02:18:33;27.77;;;16.13;;
14554;SDS011;7364;50.870;4.722;2023-12-14T02:21:01;24.33;;;15.83;;
14554;SDS011;7364;50.870;4.722;2023-12-14T02:23:30;24.33;;;15.60;;
14554;SDS011;7364;50.870;4.722;2023-12-14T02:25:58;27.53;;;17.13;;
14554;SDS011;7364;50.870;4.722;2023-12-14T02:28:26;28.87;;;16.47;;
14554;SDS011;7364;50.870;4.722;2023-12-14T02:30:53;23.53;;;14.27;;
14554;SDS011;7364;50.870;4.722;2023-12-14T02:33:20;21.73;;;14.40;;
14554;SDS011;7364;50.870;4.722;2023-12-14T02:35:47;24.17;;;14.57;;
14554;SDS011;7364;50.870;4.722;2023-12-14T02:38:15;23.87;;;13.83;;
14554;SDS011;7364;50.870;4.722;2023-12-14T02:40:43;21.60;;;15.03;;
14554;SDS011;7364;50.870;4.722;2023-12-14T02:43:10;19.93;;;14.03;;
14554;SDS011;7364;50.870;4.722;2023-12-14T02:45:38;24.37;;;14.63;;
14554;SDS011;7364;50.870;4.722;2023-12-14T02:48:05;25.83;;;15.07;;
14554;SDS011;7364;50.870;4.722;2023-12-14T02:50:32;24.40;;;14.10;;
14554;SDS011;7364;50.870;4.722;2023-12-14T02:52:59;22.17;;;14.53;;
14554;SDS011;7364;50.870;4.722;2023-12-14T02:55:27;25.23;;;15.47;;
14554;SDS011;7364;50.870;4.722;2023-12-14T02:57:55;21.90;;;14.23;;
14554;SDS011;7364;50.870;4.722;2023-12-14T03:00:22;25.77;;;14.93;;
14554;SDS011;7364;50.870;4.722;2023-12-14T03:02:50;22.17;;;15.00;;
14554;SDS011;7364;50.870;4.722;2023-12-14T03:05:17;21.70;;;13.93;;
14554;SDS011;7364;50.870;4.722;2023-12-14T03:07:44;24.20;;;15.80;;
14554;SDS011;7364;50.870;4.722;2023-12-14T03:10:14;23.83;;;15.93;;
14554;SDS011;7364;50.870;4.722;2023-12-14T03:12:42;24.50;;;15.67;;
14554;SDS011;7364;50.870;4.722;2023-12-14T03:15:11;26.50;;;15.37;;
14554;SDS011;7364;50.870;4.722;2023-12-14T03:17:38;24.67;;;14.73;;
14554;SDS011;7364;50.870;4.722;2023-12-14T03:20:05;23.03;;;15.97;;
14554;SDS011;7364;50.870;4.722;2023-12-14T03:22:33;29.67;;;16.97;;
14554;SDS011;7364;50.870;4.722;2023-12-14T03:25:01;23.67;;;14.07;;
14554;SDS011;7364;50.870;4.722;2023-12-14T03:27:28;26.80;;;15.53;;
14554;SDS011;7364;50.870;4.722;2023-12-14T03:29:55;22.33;;;14.70;;
14554;SDS011;7364;50.870;4.722;2023-12-14T03:32:24;22.50;;;13.50;;
14554;SDS011;7364;50.870;4.722;2023-12-14T03:34:51;26.37;;;14.43;;
14554;SDS011;7364;50.870;4.722;2023-12-14T03:37:18;23.47;;;14.90;;
14554;SDS011;7364;50.870;4.722;2023-12-14T03:39:47;21.97;;;13.77;;
14554;SDS011;7364;50.870;4.722;2023-12-14T03:42:14;24.80;;;14.23;;
14554;SDS011;7364;50.870;4.722;2023-12-14T03:44:42;19.30;;;12.43;;
14554;SDS011;7364;50.870;4.722;2023-12-14T03:47:09;18.50;;;13.00;;
14554;SDS011;7364;50.870;4.722;2023-12-14T03:49:38;23.47;;;12.83;;
14554;SDS011;7364;50.870;4.722;2023-12-14T03:52:05;20.57;;;12.57;;
14554;SDS011;7364;50.870;4.722;2023-12-14T03:54:32;20.73;;;13.87;;
14554;SDS011;7364;50.870;4.722;2023-12-14T03:56:59;18.47;;;12.53;;
14554;SDS011;7364;50.870;4.722;2023-12-14T03:59:26;18.80;;;12.77;;
14554;SDS011;7364;50.870;4.722;2023-12-14T04:01:53;18.60;;;12.70;;
14554;SDS011;7364;50.870;4.722;2023-12-14T04:04:21;20.80;;;11.77;;
14554;SDS011;7364;50.870;4.722;2023-12-14T04:06:49;18.10;;;13.10;;
14554;SDS011;7364;50.870;4.722;2023-12-14T04:09:16;23.63;;;14.27;;
14554;SDS011;7364;50.870;4.722;2023-12-14T04:11:44;24.13;;;13.67;;
14554;SDS011;7364;50.870;4.722;2023-12-14T04:14:11;21.90;;;13.03;;
14554;SDS011;7364;50.870;4.722;2023-12-14T04:16:38;16.07;;;10.47;;
14554;SDS011;7364;50.870;4.722;2023-12-14T04:19:06;21.53;;;11.57;;
14554;SDS011;7364;50.870;4.722;2023-12-14T04:21:35;17.30;;;11.03;;
14554;SDS011;7364;50.870;4.722;2023-12-14T04:24:04;15.20;;;9.93;;
14554;SDS011;7364;50.870;4.722;2023-12-14T04:26:32;14.93;;;10.07;;
14554;SDS011;7364;50.870;4.722;2023-12-14T04:28:59;11.23;;;9.07;;
14554;SDS011;7364;50.870;4.722;2023-12-14T04:31:27;15.13;;;10.13;;
14554;SDS011;7364;50.870;4.722;2023-12-14T04:33:54;14.30;;;10.17;;
14554;SDS011;7364;50.870;4.722;2023-12-14T04:36:21;17.23;;;10.37;;
14554;SDS011;7364;50.870;4.722;2023-12-14T04:38:48;16.67;;;10.10;;
14554;SDS011;7364;50.870;4.722;2023-12-14T04:41:17;12.73;;;9.60;;
14554;SDS011;7364;50.870;4.722;2023-12-14T04:43:44;14.50;;;9.50;;
14554;SDS011;7364;50.870;4.722;2023-12-14T04:46:12;15.53;;;11.13;;
14554;SDS011;7364;50.870;4.722;2023-12-14T04:48:39;14.17;;;9.70;;
14554;SDS011;7364;50.870;4.722;2023-12-14T04:51:10;16.13;;;10.50;;
14554;SDS011;7364;50.870;4.722;2023-12-14T04:53:39;15.10;;;10.50;;
14554;SDS011;7364;50.870;4.722;2023-12-14T04:56:09;14.63;;;11.20;;
14554;SDS011;7364;50.870;4.722;2023-12-14T04:58:39;16.00;;;10.50;;
14554;SDS011;7364;50.870;4.722;2023-12-14T05:01:06;20.10;;;11.80;;
14554;SDS011;7364;50.870;4.722;2023-12-14T05:03:34;14.40;;;9.80;;
14554;SDS011;7364;50.870;4.722;2023-12-14T05:06:02;13.90;;;11.37;;
14554;SDS011;7364;50.870;4.722;2023-12-14T05:08:30;15.27;;;10.57;;
14554;SDS011;7364;50.870;4.722;2023-12-14T05:10:58;17.67;;;10.70;;
14554;SDS011;7364;50.870;4.722;2023-12-14T05:13:25;16.17;;;11.83;;
14554;SDS011;7364;50.870;4.722;2023-12-14T05:15:53;20.47;;;12.20;;
14554;SDS011;7364;50.870;4.722;2023-12-14T05:18:22;14.63;;;11.53;;
14554;SDS011;7364;50.870;4.722;2023-12-14T05:20:50;15.57;;;10.90;;
14554;SDS011;7364;50.870;4.722;2023-12-14T05:23:17;15.27;;;10.63;;
14554;SDS011;7364;50.870;4.722;2023-12-14T05:25:44;14.77;;;10.93;;
14554;SDS011;7364;50.870;4.722;2023-12-14T05:28:12;14.87;;;11.27;;
14554;SDS011;7364;50.870;4.722;2023-12-14T05:30:39;17.80;;;10.60;;
14554;SDS011;7364;50.870;4.722;2023-12-14T05:33:08;14.00;;;10.00;;
14554;SDS011;7364;50.870;4.722;2023-12-14T05:35:35;13.27;;;10.30;;
14554;SDS011;7364;50.870;4.722;2023-12-14T05:38:02;14.23;;;11.70;;
14554;SDS011;7364;50.870;4.722;2023-12-14T05:40:30;14.97;;;12.27;;
14554;SDS011;7364;50.870;4.722;2023-12-14T05:42:58;15.03;;;11.50;;
14554;SDS011;7364;50.870;4.722;2023-12-14T05:45:24;21.27;;;13.53;;
14554;SDS011;7364;50.870;4.722;2023-12-14T05:47:51;15.47;;;11.17;;
14554;SDS011;7364;50.870;4.722;2023-12-14T05:50:20;18.47;;;12.70;;
14554;SDS011;7364;50.870;4.722;2023-12-14T05:52:47;15.30;;;11.47;;
14554;SDS011;7364;50.870;4.722;2023-12-14T05:55:16;16.90;;;12.57;;
14554;SDS011;7364;50.870;4.722;2023-12-14T05:57:47;15.73;;;10.97;;
14554;SDS011;7364;50.870;4.722;2023-12-14T06:00:14;18.63;;;11.43;;
14554;SDS011;7364;50.870;4.722;2023-12-14T06:02:42;16.57;;;11.93;;
14554;SDS011;7364;50.870;4.722;2023-12-14T06:05:09;18.10;;;12.13;;
14554;SDS011;7364;50.870;4.722;2023-12-14T06:07:39;18.17;;;12.57;;
14554;SDS011;7364;50.870;4.722;2023-12-14T06:10:06;14.30;;;11.80;;
14554;SDS011;7364;50.870;4.722;2023-12-14T06:12:34;15.00;;;11.80;;
14554;SDS011;7364;50.870;4.722;2023-12-14T06:15:01;17.73;;;12.47;;
14554;SDS011;7364;50.870;4.722;2023-12-14T06:17:28;17.20;;;11.73;;
14554;SDS011;7364;50.870;4.722;2023-12-14T06:19:57;16.93;;;11.37;;
14554;SDS011;7364;50.870;4.722;2023-12-14T06:22:24;12.03;;;10.60;;
14554;SDS011;7364;50.870;4.722;2023-12-14T06:24:52;17.77;;;12.80;;
14554;SDS011;7364;50.870;4.722;2023-12-14T06:27:20;18.50;;;12.67;;
14554;SDS011;7364;50.870;4.722;2023-12-14T06:29:51;15.87;;;12.23;;
14554;SDS011;7364;50.870;4.722;2023-12-14T06:32:19;17.43;;;12.67;;
14554;SDS011;7364;50.870;4.722;2023-12-14T06:34:46;14.67;;;10.93;;
14554;SDS011;7364;50.870;4.722;2023-12-14T06:37:14;15.30;;;11.63;;
14554;SDS011;7364;50.870;4.722;2023-12-14T06:39:41;15.90;;;11.57;;
14554;SDS011;7364;50.870;4.722;2023-12-14T06:42:10;13.23;;;10.93;;
14554;SDS011;7364;50.870;4.722;2023-12-14T06:44:37;17.37;;;11.30;;
14554;SDS011;7364;50.870;4.722;2023-12-14T06:47:04;13.60;;;11.07;;
14554;SDS011;7364;50.870;4.722;2023-12-14T06:49:31;18.73;;;11.80;;
14554;SDS011;7364;50.870;4.722;2023-12-14T06:51:58;16.33;;;10.63;;
14554;SDS011;7364;50.870;4.722;2023-12-14T06:54:26;18.13;;;12.10;;
14554;SDS011;7364;50.870;4.722;2023-12-14T06:56:53;18.97;;;11.40;;
14554;SDS011;7364;50.870;4.722;2023-12-14T06:59:21;19.73;;;12.33;;
14554;SDS011;7364;50.870;4.722;2023-12-14T07:01:49;19.30;;;11.73;;
14554;SDS011;7364;50.870;4.722;2023-12-14T07:04:16;17.80;;;12.03;;
14554;SDS011;7364;50.870;4.722;2023-12-14T07:06:49;16.03;;;11.23;;
14554;SDS011;7364;50.870;4.722;2023-12-14T07:09:17;15.30;;;11.70;;
14554;SDS011;7364;50.870;4.722;2023-12-14T07:11:45;17.03;;;11.97;;
14554;SDS011;7364;50.870;4.722;2023-12-14T07:14:12;17.77;;;12.67;;
14554;SDS011;7364;50.870;4.722;2023-12-14T07:16:41;18.13;;;12.80;;
14554;SDS011;7364;50.870;4.722;2023-12-14T07:19:08;20.70;;;12.30;;
14554;SDS011;7364;50.870;4.722;2023-12-14T07:21:37;16.00;;;12.27;;
14554;SDS011;7364;50.870;4.722;2023-12-14T07:24:04;16.63;;;12.23;;
14554;SDS011;7364;50.870;4.722;2023-12-14T07:26:31;16.77;;;12.17;;
14554;SDS011;7364;50.870;4.722;2023-12-14T07:28:59;18.80;;;12.60;;
14554;SDS011;7364;50.870;4.722;2023-12-14T07:31:27;20.30;;;12.27;;
14554;SDS011;7364;50.870;4.722;2023-12-14T07:33:56;19.20;;;12.27;;
14554;SDS011;7364;50.870;4.722;2023-12-14T07:36:24;19.97;;;12.07;;
14554;SDS011;7364;50.870;4.722;2023-12-14T07:38:52;16.47;;;11.30;;
14554;SDS011;7364;50.870;4.722;2023-12-14T07:41:19;16.93;;;12.13;;
14554;SDS011;7364;50.870;4.722;2023-12-14T07:43:48;20.63;;;14.03;;
14554;SDS011;7364;50.870;4.722;2023-12-14T07:46:15;19.93;;;13.73;;
14554;SDS011;7364;50.870;4.722;2023-12-14T07:48:42;21.63;;;12.67;;
14554;SDS011;7364;50.870;4.722;2023-12-14T07:51:11;18.80;;;13.97;;
14554;SDS011;7364;50.870;4.722;2023-12-14T07:53:38;21.87;;;13.03;;
14554;SDS011;7364;50.870;4.722;2023-12-14T07:56:06;19.73;;;13.50;;
14554;SDS011;7364;50.870;4.722;2023-12-14T07:58:34;18.50;;;12.37;;
14554;SDS011;7364;50.870;4.722;2023-12-14T08:01:01;21.13;;;13.03;;
14554;SDS011;7364;50.870;4.722;2023-12-14T08:03:28;17.33;;;12.50;;
14554;SDS011;7364;50.870;4.722;2023-12-14T08:05:56;21.53;;;13.40;;
14554;SDS011;7364;50.870;4.722;2023-12-14T08:08:25;19.90;;;13.93;;
14554;SDS011;7364;50.870;4.722;2023-12-14T08:10:52;17.13;;;12.47;;
14554;SDS011;7364;50.870;4.722;2023-12-14T08:13:19;18.47;;;13.67;;
14554;SDS011;7364;50.870;4.722;2023-12-14T08:15:47;20.23;;;13.47;;
14554;SDS011;7364;50.870;4.722;2023-12-14T08:18:14;18.10;;;13.10;;
14554;SDS011;7364;50.870;4.722;2023-12-14T08:20:42;17.33;;;13.47;;
14554;SDS011;7364;50.870;4.722;2023-12-14T08:23:10;20.27;;;13.47;;
14554;SDS011;7364;50.870;4.722;2023-12-14T08:25:38;15.93;;;12.10;;
14554;SDS011;7364;50.870;4.722;2023-12-14T08:28:06;16.10;;;12.13;;
14554;SDS011;7364;50.870;4.722;2023-12-14T08:30:33;18.83;;;11.77;;
14554;SDS011;7364;50.870;4.722;2023-12-14T08:33:00;16.00;;;11.90;;
14554;SDS011;7364;50.870;4.722;2023-12-14T08:35:28;18.13;;;12.13;;
14554;SDS011;7364;50.870;4.722;2023-12-14T08:37:55;18.87;;;11.67;;
14554;SDS011;7364;50.870;4.722;2023-12-14T08:40:23;13.40;;;11.00;;
14554;SDS011;7364;50.870;4.722;2023-12-14T08:42:51;15.90;;;10.43;;
14554;SDS011;7364;50.870;4.722;2023-12-14T08:45:18;14.20;;;11.50;;
14554;SDS011;7364;50.870;4.722;2023-12-14T08:47:46;15.13;;;10.87;;
14554;SDS011;7364;50.870;4.722;2023-12-14T08:50:13;12.90;;;10.00;;
14554;SDS011;7364;50.870;4.722;2023-12-14T08:52:40;17.20;;;10.33;;
14554;SDS011;7364;50.870;4.722;2023-12-14T08:55:08;16.47;;;9.90;;
14554;SDS011;7364;50.870;4.722;2023-12-14T08:57:35;14.30;;;9.57;;
14554;SDS011;7364;50.870;4.722;2023-12-14T09:00:06;11.70;;;8.87;;
14554;SDS011;7364;50.870;4.722;2023-12-14T09:02:34;10.97;;;8.90;;
14554;SDS011;7364;50.870;4.722;2023-12-14T09:05:02;12.83;;;8.97;;
14554;SDS011;7364;50.870;4.722;2023-12-14T09:07:31;15.63;;;9.10;;
14554;SDS011;7364;50.870;4.722;2023-12-14T09:09:58;11.53;;;8.20;;
14554;SDS011;7364;50.870;4.722;2023-12-14T09:12:25;18.90;;;8.47;;
14554;SDS011;7364;50.870;4.722;2023-12-14T09:14:52;14.97;;;8.70;;
14554;SDS011;7364;50.870;4.722;2023-12-14T09:17:22;10.33;;;8.20;;
14554;SDS011;7364;50.870;4.722;2023-12-14T09:19:49;11.37;;;7.97;;
14554;SDS011;7364;50.870;4.722;2023-12-14T09:22:16;14.40;;;8.50;;
14554;SDS011;7364;50.870;4.722;2023-12-14T09:24:43;10.50;;;7.20;;
14554;SDS011;7364;50.870;4.722;2023-12-14T09:27:11;12.40;;;7.90;;
14554;SDS011;7364;50.870;4.722;2023-12-14T09:29:38;14.20;;;8.27;;
14554;SDS011;7364;50.870;4.722;2023-12-14T09:32:06;8.37;;;6.70;;
14554;SDS011;7364;50.870;4.722;2023-12-14T09:34:36;12.60;;;7.27;;
14554;SDS011;7364;50.870;4.722;2023-12-14T09:37:03;10.87;;;7.43;;
14554;SDS011;7364;50.870;4.722;2023-12-14T09:39:31;9.57;;;7.03;;
14554;SDS011;7364;50.870;4.722;2023-12-14T09:42:01;11.20;;;6.27;;
14554;SDS011;7364;50.870;4.722;2023-12-14T09:44:30;9.90;;;6.30;;
14554;SDS011;7364;50.870;4.722;2023-12-14T09:46:58;10.83;;;6.07;;
14554;SDS011;7364;50.870;4.722;2023-12-14T09:49:27;10.43;;;6.37;;
14554;SDS011;7364;50.870;4.722;2023-12-14T09:51:57;8.90;;;6.63;;
14554;SDS011;7364;50.870;4.722;2023-12-14T09:54:25;9.37;;;5.57;;
14554;SDS011;7364;50.870;4.722;2023-12-14T09:56:53;12.03;;;6.37;;
14554;SDS011;7364;50.870;4.722;2023-12-14T09:59:21;9.57;;;5.17;;
14554;SDS011;7364;50.870;4.722;2023-12-14T10:01:48;14.17;;;5.87;;
14554;SDS011;7364;50.870;4.722;2023-12-14T10:04:16;8.20;;;5.73;;
14554;SDS011;7364;50.870;4.722;2023-12-14T10:06:45;8.30;;;4.97;;
14554;SDS011;7364;50.870;4.722;2023-12-14T10:09:14;11.63;;;5.87;;
14554;SDS011;7364;50.870;4.722;2023-12-14T10:11:43;7.17;;;5.07;;
14554;SDS011;7364;50.870;4.722;2023-12-14T10:14:17;9.50;;;5.40;;
14554;SDS011;7364;50.870;4.722;2023-12-14T10:16:46;8.20;;;5.33;;
14554;SDS011;7364;50.870;4.722;2023-12-14T10:19:14;7.83;;;4.97;;
14554;SDS011;7364;50.870;4.722;2023-12-14T10:21:42;10.00;;;5.57;;
14554;SDS011;7364;50.870;4.722;2023-12-14T10:24:10;6.50;;;3.77;;
14554;SDS011;7364;50.870;4.722;2023-12-14T10:26:39;5.23;;;3.67;;
14554;SDS011;7364;50.870;4.722;2023-12-14T10:29:06;5.60;;;4.40;;
14554;SDS011;7364;50.870;4.722;2023-12-14T10:31:35;7.60;;;4.87;;
14554;SDS011;7364;50.870;4.722;2023-12-14T10:34:03;6.70;;;4.50;;
14554;SDS011;7364;50.870;4.722;2023-12-14T10:36:30;9.37;;;5.07;;
14554;SDS011;7364;50.870;4.722;2023-12-14T10:38:59;5.57;;;4.17;;
14554;SDS011;7364;50.870;4.722;2023-12-14T10:41:28;9.20;;;4.33;;
14554;SDS011;7364;50.870;4.722;2023-12-14T10:44:01;9.07;;;4.63;;
14554;SDS011;7364;50.870;4.722;2023-12-14T10:46:29;5.97;;;4.67;;
14554;SDS011;7364;50.870;4.722;2023-12-14T10:48:57;10.63;;;4.23;;
14554;SDS011;7364;50.870;4.722;2023-12-14T10:51:27;7.00;;;4.70;;
14554;SDS011;7364;50.870;4.722;2023-12-14T10:53:54;7.47;;;5.50;;
14554;SDS011;7364;50.870;4.722;2023-12-14T10:56:22;10.07;;;5.07;;
14554;SDS011;7364;50.870;4.722;2023-12-14T10:58:51;9.50;;;6.50;;
14554;SDS011;7364;50.870;4.722;2023-12-14T11:01:21;8.80;;;6.03;;
14554;SDS011;7364;50.870;4.722;2023-12-14T11:03:49;10.67;;;6.43;;
14554;SDS011;7364;50.870;4.722;2023-12-14T11:06:20;9.90;;;6.50;;
14554;SDS011;7364;50.870;4.722;2023-12-14T11:08:56;8.90;;;6.80;;
14554;SDS011;7364;50.870;4.722;2023-12-14T11:11:27;9.07;;;6.20;;
14554;SDS011;7364;50.870;4.722;2023-12-14T11:13:55;9.67;;;6.50;;
14554;SDS011;7364;50.870;4.722;2023-12-14T11:16:24;12.90;;;6.90;;
14554;SDS011;7364;50.870;4.722;2023-12-14T11:24:55;13.37;;;7.50;;
14554;SDS011;7364;50.870;4.722;2023-12-14T11:27:31;8.33;;;6.73;;
14554;SDS011;7364;50.870;4.722;2023-12-14T11:29:59;13.70;;;7.33;;
14554;SDS011;7364;50.870;4.722;2023-12-14T11:32:29;11.93;;;7.23;;
14554;SDS011;7364;50.870;4.722;2023-12-14T11:34:57;9.70;;;6.83;;
14554;SDS011;7364;50.870;4.722;2023-12-14T11:37:24;8.60;;;6.30;;
14554;SDS011;7364;50.870;4.722;2023-12-14T11:39:53;10.13;;;6.67;;
14554;SDS011;7364;50.870;4.722;2023-12-14T11:42:20;8.90;;;6.10;;
14554;SDS011;7364;50.870;4.722;2023-12-14T11:44:47;9.53;;;6.73;;
14554;SDS011;7364;50.870;4.722;2023-12-14T11:47:14;8.20;;;5.77;;
14554;SDS011;7364;50.870;4.722;2023-12-14T11:49:43;8.27;;;6.07;;
14554;SDS011;7364;50.870;4.722;2023-12-14T11:52:10;8.50;;;5.30;;
14554;SDS011;7364;50.870;4.722;2023-12-14T11:54:38;12.73;;;5.53;;
14554;SDS011;7364;50.870;4.722;2023-12-14T11:57:05;6.00;;;4.47;;
14554;SDS011;7364;50.870;4.722;2023-12-14T11:59:34;9.90;;;5.10;;
14554;SDS011;7364;50.870;4.722;2023-12-14T12:02:03;8.10;;;5.43;;
14554;SDS011;7364;50.870;4.722;2023-12-14T12:04:30;10.75;;;7.70;;
14554;SDS011;7364;50.870;4.722;2023-12-14T12:07:03;8.73;;;5.20;;
14554;SDS011;7364;50.870;4.722;2023-12-14T12:09:36;8.00;;;4.87;;
14554;SDS011;7364;50.870;4.722;2023-12-14T12:12:07;12.60;;;5.03;;
14554;SDS011;7364;50.870;4.722;2023-12-14T12:14:35;9.20;;;4.80;;
14554;SDS011;7364;50.870;4.722;2023-12-14T12:17:03;9.77;;;4.80;;
14554;SDS011;7364;50.870;4.722;2023-12-14T12:19:34;8.73;;;4.70;;
14554;SDS011;7364;50.870;4.722;2023-12-14T12:22:03;7.90;;;5.60;;
14554;SDS011;7364;50.870;4.722;2023-12-14T12:24:30;8.43;;;4.63;;
14554;SDS011;7364;50.870;4.722;2023-12-14T12:26:58;13.93;;;6.03;;
14554;SDS011;7364;50.870;4.722;2023-12-14T12:29:25;11.80;;;5.63;;
14554;SDS011;7364;50.870;4.722;2023-12-14T12:31:52;9.97;;;5.37;;
14554;SDS011;7364;50.870;4.722;2023-12-14T12:34:19;9.70;;;4.43;;
14554;SDS011;7364;50.870;4.722;2023-12-14T12:36:46;7.33;;;5.13;;
14554;SDS011;7364;50.870;4.722;2023-12-14T12:39:15;6.07;;;4.43;;
14554;SDS011;7364;50.870;4.722;2023-12-14T12:41:42;8.70;;;4.37;;
14554;SDS011;7364;50.870;4.722;2023-12-14T12:44:09;8.87;;;4.70;;
14554;SDS011;7364;50.870;4.722;2023-12-14T12:46:36;7.53;;;4.77;;
14554;SDS011;7364;50.870;4.722;2023-12-14T12:49:04;7.70;;;4.97;;
14554;SDS011;7364;50.870;4.722;2023-12-14T12:51:32;9.77;;;5.07;;
14554;SDS011;7364;50.870;4.722;2023-12-14T12:54:00;5.47;;;4.47;;
14554;SDS011;7364;50.870;4.722;2023-12-14T12:56:30;8.87;;;5.07;;
14554;SDS011;7364;50.870;4.722;2023-12-14T12:58:57;7.97;;;4.90;;
14554;SDS011;7364;50.870;4.722;2023-12-14T13:01:24;11.53;;;4.40;;
14554;SDS011;7364;50.870;4.722;2023-12-14T13:03:53;13.57;;;4.70;;
14554;SDS011;7364;50.870;4.722;2023-12-14T13:06:22;6.80;;;4.63;;
14554;SDS011;7364;50.870;4.722;2023-12-14T13:08:50;13.83;;;4.87;;
14554;SDS011;7364;50.870;4.722;2023-12-14T13:11:17;8.67;;;4.60;;
14554;SDS011;7364;50.870;4.722;2023-12-14T13:13:46;9.17;;;5.00;;
14554;SDS011;7364;50.870;4.722;2023-12-14T13:16:13;6.17;;;4.37;;
14554;SDS011;7364;50.870;4.722;2023-12-14T13:18:42;18.97;;;5.20;;
14554;SDS011;7364;50.870;4.722;2023-12-14T13:21:11;9.30;;;5.47;;
14554;SDS011;7364;50.870;4.722;2023-12-14T13:23:38;7.10;;;5.00;;
14554;SDS011;7364;50.870;4.722;2023-12-14T13:26:05;9.23;;;4.80;;
14554;SDS011;7364;50.870;4.722;2023-12-14T13:28:32;9.50;;;4.80;;
14554;SDS011;7364;50.870;4.722;2023-12-14T13:31:02;5.37;;;4.23;;
14554;SDS011;7364;50.870;4.722;2023-12-14T13:33:30;9.53;;;5.30;;
14554;SDS011;7364;50.870;4.722;2023-12-14T13:35:57;9.20;;;4.40;;
14554;SDS011;7364;50.870;4.722;2023-12-14T13:38:25;9.67;;;4.57;;
14554;SDS011;7364;50.870;4.722;2023-12-14T13:40:52;5.50;;;4.30;;
14554;SDS011;7364;50.870;4.722;2023-12-14T13:43:20;11.97;;;5.33;;
14554;SDS011;7364;50.870;4.722;2023-12-14T13:45:47;11.90;;;6.00;;
14554;SDS011;7364;50.870;4.722;2023-12-14T13:48:19;5.97;;;4.83;;
14554;SDS011;7364;50.870;4.722;2023-12-14T13:50:46;10.83;;;5.03;;
14554;SDS011;7364;50.870;4.722;2023-12-14T13:53:13;10.30;;;5.33;;
14554;SDS011;7364;50.870;4.722;2023-12-14T13:55:41;14.73;;;5.47;;
14554;SDS011;7364;50.870;4.722;2023-12-14T13:58:08;9.97;;;5.60;;
14554;SDS011;7364;50.870;4.722;2023-12-14T14:00:35;8.30;;;5.20;;
14554;SDS011;7364;50.870;4.722;2023-12-14T14:03:03;5.00;;;4.30;;
14554;SDS011;7364;50.870;4.722;2023-12-14T14:05:32;13.27;;;5.23;;
14554;SDS011;7364;50.870;4.722;2023-12-14T14:08:00;13.57;;;5.87;;
14554;SDS011;7364;50.870;4.722;2023-12-14T14:10:28;8.90;;;5.20;;
14554;SDS011;7364;50.870;4.722;2023-12-14T14:12:56;5.67;;;5.03;;
14554;SDS011;7364;50.870;4.722;2023-12-14T14:15:23;10.57;;;5.77;;
14554;SDS011;7364;50.870;4.722;2023-12-14T14:17:50;6.40;;;5.17;;
14554;SDS011;7364;50.870;4.722;2023-12-14T14:20:19;6.93;;;4.53;;
14554;SDS011;7364;50.870;4.722;2023-12-14T14:22:51;11.10;;;4.97;;
14554;SDS011;7364;50.870;4.722;2023-12-14T14:25:19;6.40;;;4.97;;
14554;SDS011;7364;50.870;4.722;2023-12-14T14:27:46;10.13;;;5.40;;
14554;SDS011;7364;50.870;4.722;2023-12-14T14:30:13;11.17;;;5.73;;
14554;SDS011;7364;50.870;4.722;2023-12-14T14:32:41;7.37;;;4.93;;
14554;SDS011;7364;50.870;4.722;2023-12-14T14:35:08;12.30;;;6.23;;
14554;SDS011;7364;50.870;4.722;2023-12-14T14:37:35;8.30;;;6.93;;
14554;SDS011;7364;50.870;4.722;2023-12-14T14:40:05;8.37;;;6.17;;
14554;SDS011;7364;50.870;4.722;2023-12-14T14:42:33;9.33;;;5.80;;
14554;SDS011;7364;50.870;4.722;2023-12-14T14:45:00;15.07;;;6.20;;
14554;SDS011;7364;50.870;4.722;2023-12-14T14:47:28;13.47;;;6.27;;
14554;SDS011;7364;50.870;4.722;2023-12-14T14:49:55;7.73;;;4.97;;
14554;SDS011;7364;50.870;4.722;2023-12-14T14:52:28;10.83;;;5.70;;